Beluga Festival — V2EL7 — position and weather

sailwx.info

Track history (hours):
 
Tides and Currents Weather Stations Pressure Air Temp Water Temp Dewpoint Dewpoint Depression Visibility Wind Speed Wind Dir Waves Ship Positions

Beluga Festival

Last reported at 2018-Aug-06 10:42 UTC. Time now 2018-Aug-14 23:44 UTC.
Position N 25°31' W 021°13'.
Warning: this ship's position is 8 days out of date.

Length 138 m; draft 7.4 m.

Type: Cargo ship. MMSI: 305470000.

Date/timePositionNaut miles runAvg speedWind from/ knotsBaromVisibWave heightAir tempDewpointWater temp
2018-Aug-06 10:42N 25°31' W 021°13'  
2018-Aug-04 01:19N 36°29' W 014°59'410.1
2018-Aug-04 00:54N 36°33' W 014°57'1 1.7
2018-Aug-04 00:29N 36°33' W 014°56'13412.4
2018-Aug-03 13:42N 38°31' W 013°38'213.1
2018-Aug-03 13:30N 38°34' W 013°37'713.2
2018-Aug-03 13:00N 38°40' W 013°33'613.1
2018-Aug-03 12:30N 38°45' W 013°29'2812.6
2018-Aug-03 10:18N 39°09' W 013°11'412.9
2018-Aug-03 10:00N 39°13' W 013°09'612.9
2018-Aug-03 09:30N 39°18' W 013°05'612.8
2018-Aug-03 09:00N 39°24' W 013°01'5512.7
2018-Aug-03 04:39N 40°13' W 012°27'413.1
2018-Aug-03 04:22N 40°16' W 012°25'513.0
2018-Aug-03 04:00N 40°21' W 012°23'612.6
2018-Aug-03 03:30N 40°26' W 012°19'713.1
2018-Aug-03 03:00N 40°32' W 012°15'713.5
2018-Aug-03 02:30N 40°38' W 012°11'713.4
2018-Aug-03 02:00N 40°44' W 012°06'2713.3
2018-Aug-03 00:00N 41°07' W 011°50'  
2018-Jul-31 10:24N 43°46' W 006°23'611.4
2018-Jul-31 09:52N 43°46' W 006°15'411.5
2018-Jul-31 09:30N 43°46' W 006°09'611.6
2018-Jul-31 09:00N 43°46' W 006°01'811.9
2018-Jul-31 08:20N 43°45' W 005°50'411.9
2018-Jul-31 08:00N 43°45' W 005°45'611.8
2018-Jul-31 07:29N 43°44' W 005°36'611.6
2018-Jul-31 07:00N 43°44' W 005°29'611.6
2018-Jul-31 06:30N 43°43' W 005°21'611.2
2018-Jul-31 06:00N 43°43' W 005°13'611.2
2018-Jul-31 05:28N 43°42' W 005°05'511.4
2018-Jul-31 05:00N 43°42' W 004°57'3511.1
2018-Jul-31 01:52N 43°38' W 004°09'411.1
2018-Jul-31 01:31N 43°38' W 004°04'610.9
2018-Jul-31 01:00N 43°37' W 003°56'611.0
2018-Jul-31 00:25N 43°37' W 003°47'510.9
2018-Jul-31 00:00N 43°37' W 003°41'510.6
2018-Jul-30 23:30N 43°37' W 003°34'611.5
2018-Jul-30 23:01N 43°36' W 003°26'611.6
2018-Jul-30 22:31N 43°36' W 003°18'611.6
2018-Jul-30 22:00N 43°35' W 003°10'611.9
2018-Jul-30 21:31N 43°34' W 003°02'611.8
2018-Jul-30 20:59N 43°33' W 002°54'611.7
2018-Jul-30 20:30N 43°33' W 002°46'611.7
2018-Jul-30 20:01N 43°32' W 002°38'611.7
2018-Jul-30 19:30N 43°30' W 002°30'611.5
2018-Jul-30 19:00N 43°28' W 002°23'611.7
2018-Jul-30 18:31N 43°26' W 002°15'611.9
2018-Jul-30 18:01N 43°24' W 002°07'611.6
2018-Jul-30 17:30N 43°23' W 001°60'5 8.2
2018-Jul-30 16:57N 43°19' W 001°55'0 0.4
2018-Jul-30 16:27N 43°19' W 001°55'0 0.0
2018-Jul-30 16:00N 43°19' W 001°55'0 0.0
2018-Jul-30 15:27N 43°19' W 001°55'0 0.0
2018-Jul-30 14:51N 43°19' W 001°55'0 0.0
2018-Jul-30 13:39N 43°19' W 001°55'0 0.0
2018-Jul-30 13:27N 43°19' W 001°55'0 0.0
2018-Jul-30 13:00N 43°19' W 001°55'0 0.0
2018-Jul-30 12:27N 43°19' W 001°55'0 0.0
2018-Jul-30 11:57N 43°19' W 001°55'0 0.0
2018-Jul-30 11:27N 43°19' W 001°55'0 0.0
2018-Jul-30 10:27N 43°19' W 001°55'0 0.0
2018-Jul-30 09:57N 43°19' W 001°55'0 0.0
2018-Jul-30 09:18N 43°19' W 001°55'0 0.0
2018-Jul-30 08:57N 43°19' W 001°55'0 0.0
2018-Jul-30 08:30N 43°19' W 001°55'0 0.0
2018-Jul-30 07:57N 43°19' W 001°55'0 0.0
2018-Jul-30 05:57N 43°19' W 001°55'0 0.0
2018-Jul-30 05:03N 43°19' W 001°55'0 0.0
2018-Jul-30 04:45N 43°19' W 001°55'0 0.0
2018-Jul-30 04:15N 43°19' W 001°55'0 0.0
2018-Jul-30 03:57N 43°19' W 001°55'0 0.0
2018-Jul-30 03:27N 43°19' W 001°55'0 0.0
2018-Jul-30 02:57N 43°19' W 001°55'0 0.0
2018-Jul-30 02:27N 43°19' W 001°55'0 0.0
2018-Jul-30 01:57N 43°19' W 001°55'0 0.0
2018-Jul-29 23:33N 43°19' W 001°55'0 0.0
2018-Jul-29 20:45N 43°19' W 001°55'0 0.0
2018-Jul-29 20:21N 43°19' W 001°55'0 0.0
2018-Jul-29 19:57N 43°19' W 001°55'0 0.0
2018-Jul-29 19:15N 43°19' W 001°55'0 0.0
2018-Jul-29 18:51N 43°19' W 001°55'0 0.0
2018-Jul-29 18:27N 43°19' W 001°55'0 0.0
2018-Jul-29 17:57N 43°19' W 001°55'0 0.0
2018-Jul-29 17:27N 43°19' W 001°55'0 0.0
2018-Jul-29 16:39N 43°19' W 001°55'0 0.0
2018-Jul-29 16:15N 43°19' W 001°55'0 0.0
2018-Jul-29 15:27N 43°19' W 001°55'0 0.0
2018-Jul-29 14:57N 43°19' W 001°55'0 0.0
2018-Jul-29 14:27N 43°19' W 001°55'0 0.0
2018-Jul-29 13:27N 43°19' W 001°55'0 0.0
2018-Jul-29 12:48N 43°19' W 001°55'0 0.0
2018-Jul-29 12:15N 43°19' W 001°55'0 0.0
2018-Jul-29 05:27N 43°19' W 001°55'0 0.0
2018-Jul-29 04:27N 43°19' W 001°55'0 0.0
2018-Jul-29 03:57N 43°19' W 001°55'0 0.0
2018-Jul-29 03:27N 43°19' W 001°55'0 0.0
2018-Jul-29 02:57N 43°19' W 001°55'0 0.0
2018-Jul-29 01:33N 43°19' W 001°55'0 0.0
2018-Jul-29 01:15N 43°19' W 001°55'0 0.0
2018-Jul-29 00:57N 43°19' W 001°55'0 0.0
2018-Jul-28 15:57N 43°19' W 001°55'0 0.0
2018-Jul-28 15:21N 43°19' W 001°55'0 0.0
2018-Jul-28 14:57N 43°19' W 001°55'1 1.6
2018-Jul-28 14:30N 43°20' W 001°56'4 8.2
2018-Jul-28 14:00N 43°24' W 001°58'612.4
2018-Jul-28 13:31N 43°29' W 002°01'612.5
2018-Jul-28 13:01N 43°35' W 002°05'612.8
2018-Jul-28 12:30N 43°40' W 002°10'612.6
2018-Jul-28 12:00N 43°46' W 002°14'612.7
2018-Jul-28 11:31N 43°51' W 002°18'612.7
2018-Jul-28 11:01N 43°57' W 002°23'612.9
2018-Jul-28 10:30N 44°02' W 002°27'612.8
2018-Jul-28 10:00N 44°08' W 002°32'613.0
2018-Jul-28 09:30N 44°14' W 002°36'612.8
2018-Jul-28 09:00N 44°19' W 002°40'612.6
2018-Jul-28 08:30N 44°25' W 002°44'23312.6
2018-Jul-27 13:58N 47°52' W 005°18'1111.1
2018-Jul-27 12:59N 48°02' W 005°26'1010.0
2018-Jul-27 11:59N 48°10' W 005°35'1211.9
2018-Jul-27 10:59N 48°21' W 005°43'  
Track history (hours):
 
Tides and Currents Weather Stations Pressure Air Temp Water Temp Dewpoint Dewpoint Depression Visibility Wind Speed Wind Dir Waves Ship Positions

Beluga Festival

Last reported at 2018-Aug-06 10:42 UTC. Time now 2018-Aug-14 23:44 UTC.
Position N 25°31' W 021°13'.
Warning: this ship's position is 8 days out of date.

Length 138 m; draft 7.4 m.

Type: Cargo ship. MMSI: 305470000.

Date/timePositionNaut miles runAvg speedWind from/ knotsBaromVisibWave heightAir tempDewpointWater temp
2018-Aug-06 10:42N 25°31' W 021°13'  
2018-Aug-04 01:19N 36°29' W 014°59'410.1
2018-Aug-04 00:54N 36°33' W 014°57'1 1.7
2018-Aug-04 00:29N 36°33' W 014°56'13412.4
2018-Aug-03 13:42N 38°31' W 013°38'213.1
2018-Aug-03 13:30N 38°34' W 013°37'713.2
2018-Aug-03 13:00N 38°40' W 013°33'613.1
2018-Aug-03 12:30N 38°45' W 013°29'2812.6
2018-Aug-03 10:18N 39°09' W 013°11'412.9
2018-Aug-03 10:00N 39°13' W 013°09'612.9
2018-Aug-03 09:30N 39°18' W 013°05'612.8
2018-Aug-03 09:00N 39°24' W 013°01'5512.7
2018-Aug-03 04:39N 40°13' W 012°27'413.1
2018-Aug-03 04:22N 40°16' W 012°25'513.0
2018-Aug-03 04:00N 40°21' W 012°23'612.6
2018-Aug-03 03:30N 40°26' W 012°19'713.1
2018-Aug-03 03:00N 40°32' W 012°15'713.5
2018-Aug-03 02:30N 40°38' W 012°11'713.4
2018-Aug-03 02:00N 40°44' W 012°06'2713.3
2018-Aug-03 00:00N 41°07' W 011°50'  
2018-Jul-31 10:24N 43°46' W 006°23'611.4
2018-Jul-31 09:52N 43°46' W 006°15'411.5
2018-Jul-31 09:30N 43°46' W 006°09'611.6
2018-Jul-31 09:00N 43°46' W 006°01'811.9
2018-Jul-31 08:20N 43°45' W 005°50'411.9
2018-Jul-31 08:00N 43°45' W 005°45'611.8
2018-Jul-31 07:29N 43°44' W 005°36'611.6
2018-Jul-31 07:00N 43°44' W 005°29'611.6
2018-Jul-31 06:30N 43°43' W 005°21'611.2
2018-Jul-31 06:00N 43°43' W 005°13'611.2
2018-Jul-31 05:28N 43°42' W 005°05'511.4
2018-Jul-31 05:00N 43°42' W 004°57'3511.1
2018-Jul-31 01:52N 43°38' W 004°09'411.1
2018-Jul-31 01:31N 43°38' W 004°04'610.9
2018-Jul-31 01:00N 43°37' W 003°56'611.0
2018-Jul-31 00:25N 43°37' W 003°47'510.9
2018-Jul-31 00:00N 43°37' W 003°41'510.6
2018-Jul-30 23:30N 43°37' W 003°34'611.5
2018-Jul-30 23:01N 43°36' W 003°26'611.6
2018-Jul-30 22:31N 43°36' W 003°18'611.6
2018-Jul-30 22:00N 43°35' W 003°10'611.9
2018-Jul-30 21:31N 43°34' W 003°02'611.8
2018-Jul-30 20:59N 43°33' W 002°54'611.7
2018-Jul-30 20:30N 43°33' W 002°46'611.7
2018-Jul-30 20:01N 43°32' W 002°38'611.7
2018-Jul-30 19:30N 43°30' W 002°30'611.5
2018-Jul-30 19:00N 43°28' W 002°23'611.7
2018-Jul-30 18:31N 43°26' W 002°15'611.9
2018-Jul-30 18:01N 43°24' W 002°07'611.6
2018-Jul-30 17:30N 43°23' W 001°60'5 8.2
2018-Jul-30 16:57N 43°19' W 001°55'0 0.4
2018-Jul-30 16:27N 43°19' W 001°55'0 0.0
2018-Jul-30 16:00N 43°19' W 001°55'0 0.0
2018-Jul-30 15:27N 43°19' W 001°55'0 0.0
2018-Jul-30 14:51N 43°19' W 001°55'0 0.0
2018-Jul-30 13:39N 43°19' W 001°55'0 0.0
2018-Jul-30 13:27N 43°19' W 001°55'0 0.0
2018-Jul-30 13:00N 43°19' W 001°55'0 0.0
2018-Jul-30 12:27N 43°19' W 001°55'0 0.0
2018-Jul-30 11:57N 43°19' W 001°55'0 0.0
2018-Jul-30 11:27N 43°19' W 001°55'0 0.0
2018-Jul-30 10:27N 43°19' W 001°55'0 0.0
2018-Jul-30 09:57N 43°19' W 001°55'0 0.0
2018-Jul-30 09:18N 43°19' W 001°55'0 0.0
2018-Jul-30 08:57N 43°19' W 001°55'0 0.0
2018-Jul-30 08:30N 43°19' W 001°55'0 0.0
2018-Jul-30 07:57N 43°19' W 001°55'0 0.0
2018-Jul-30 05:57N 43°19' W 001°55'0 0.0
2018-Jul-30 05:03N 43°19' W 001°55'0 0.0
2018-Jul-30 04:45N 43°19' W 001°55'0 0.0
2018-Jul-30 04:15N 43°19' W 001°55'0 0.0
2018-Jul-30 03:57N 43°19' W 001°55'0 0.0
2018-Jul-30 03:27N 43°19' W 001°55'0 0.0
2018-Jul-30 02:57N 43°19' W 001°55'0 0.0
2018-Jul-30 02:27N 43°19' W 001°55'0 0.0
2018-Jul-30 01:57N 43°19' W 001°55'0 0.0
2018-Jul-29 23:33N 43°19' W 001°55'0 0.0
2018-Jul-29 20:45N 43°19' W 001°55'0 0.0
2018-Jul-29 20:21N 43°19' W 001°55'0 0.0
2018-Jul-29 19:57N 43°19' W 001°55'0 0.0
2018-Jul-29 19:15N 43°19' W 001°55'0 0.0
2018-Jul-29 18:51N 43°19' W 001°55'0 0.0
2018-Jul-29 18:27N 43°19' W 001°55'0 0.0
2018-Jul-29 17:57N 43°19' W 001°55'0 0.0
2018-Jul-29 17:27N 43°19' W 001°55'0 0.0
2018-Jul-29 16:39N 43°19' W 001°55'0 0.0
2018-Jul-29 16:15N 43°19' W 001°55'0 0.0
2018-Jul-29 15:27N 43°19' W 001°55'0 0.0
2018-Jul-29 14:57N 43°19' W 001°55'0 0.0
2018-Jul-29 14:27N 43°19' W 001°55'0 0.0
2018-Jul-29 13:27N 43°19' W 001°55'0 0.0
2018-Jul-29 12:48N 43°19' W 001°55'0 0.0
2018-Jul-29 12:15N 43°19' W 001°55'0 0.0
2018-Jul-29 05:27N 43°19' W 001°55'0 0.0
2018-Jul-29 04:27N 43°19' W 001°55'0 0.0
2018-Jul-29 03:57N 43°19' W 001°55'0 0.0
2018-Jul-29 03:27N 43°19' W 001°55'0 0.0
2018-Jul-29 02:57N 43°19' W 001°55'0 0.0
2018-Jul-29 01:33N 43°19' W 001°55'0 0.0
2018-Jul-29 01:15N 43°19' W 001°55'0 0.0
2018-Jul-29 00:57N 43°19' W 001°55'0 0.0
2018-Jul-28 15:57N 43°19' W 001°55'0 0.0
2018-Jul-28 15:21N 43°19' W 001°55'0 0.0
2018-Jul-28 14:57N 43°19' W 001°55'1 1.6
2018-Jul-28 14:30N 43°20' W 001°56'4 8.2
2018-Jul-28 14:00N 43°24' W 001°58'612.4
2018-Jul-28 13:31N 43°29' W 002°01'612.5
2018-Jul-28 13:01N 43°35' W 002°05'612.8
2018-Jul-28 12:30N 43°40' W 002°10'612.6
2018-Jul-28 12:00N 43°46' W 002°14'612.7
2018-Jul-28 11:31N 43°51' W 002°18'612.7
2018-Jul-28 11:01N 43°57' W 002°23'612.9
2018-Jul-28 10:30N 44°02' W 002°27'612.8
2018-Jul-28 10:00N 44°08' W 002°32'613.0
2018-Jul-28 09:30N 44°14' W 002°36'612.8
2018-Jul-28 09:00N 44°19' W 002°40'612.6
2018-Jul-28 08:30N 44°25' W 002°44'23312.6
2018-Jul-27 13:58N 47°52' W 005°18'1111.1
2018-Jul-27 12:59N 48°02' W 005°26'1010.0
2018-Jul-27 11:59N 48°10' W 005°35'1211.9
2018-Jul-27 10:59N 48°21' W 005°43'  

Dump ship's entire track history